createdAt,value
2018-06-11T00:00:57.787Z,92.47
2018-06-11T00:01:57.801Z,92.52
2018-06-11T00:02:57.849Z,92.43
2018-06-11T00:03:57.841Z,91.99
2018-06-11T00:04:57.873Z,92.04
2018-06-11T00:05:57.886Z,93.34
2018-06-11T00:06:57.906Z,93.05
2018-06-11T00:07:57.927Z,93.91
2018-06-11T00:08:57.961Z,95.03
2018-06-11T00:09:57.975Z,94.88
2018-06-11T00:10:57.995Z,93.91
2018-06-11T00:11:58.023Z,93.34
2018-06-11T00:12:58.039Z,93.05
2018-06-11T00:13:58.057Z,94.01
2018-06-11T00:14:58.094Z,94.88
2018-06-11T00:15:58.106Z,94.98
2018-06-11T00:16:58.126Z,94.30
2018-06-11T00:17:58.148Z,93.82
2018-06-11T00:18:58.170Z,93.44
2018-06-11T00:19:58.188Z,93.10
2018-06-11T00:20:58.217Z,92.61
2018-06-11T00:21:58.243Z,92.23
2018-06-11T00:22:58.302Z,91.66
2018-06-11T00:23:58.280Z,91.85
2018-06-11T00:24:58.298Z,91.94
2018-06-11T00:25:58.311Z,92.04
2018-06-11T00:26:58.334Z,91.75
2018-06-11T00:27:58.357Z,91.08
2018-06-11T00:28:58.379Z,92.43
2018-06-11T00:29:58.397Z,93.29
2018-06-11T00:30:58.424Z,93.48
2018-06-11T00:31:58.461Z,93.10
2018-06-11T00:32:58.480Z,93.24
2018-06-11T00:33:58.495Z,93.91
2018-06-11T00:34:58.504Z,93.77
2018-06-11T00:35:58.606Z,94.21
2018-06-11T00:36:58.555Z,94.06
2018-06-11T00:37:58.588Z,92.43
2018-06-11T00:38:58.587Z,92.23
2018-06-11T00:39:58.617Z,92.28
2018-06-11T00:40:58.633Z,92.23
2018-06-11T00:41:58.664Z,93.38
2018-06-11T00:42:58.689Z,93.48
2018-06-11T00:43:58.696Z,94.25
2018-06-11T00:44:58.725Z,93.19
2018-06-11T00:45:58.748Z,92.91
2018-06-11T00:46:58.767Z,92.91
2018-06-11T00:47:58.788Z,92.91
2018-06-11T00:48:58.814Z,92.71
2018-06-11T00:49:58.827Z,92.52
2018-06-11T00:50:58.849Z,92.76
2018-06-11T00:51:58.873Z,92.08
2018-06-11T00:52:58.898Z,92.04
2018-06-11T00:53:58.909Z,92.23
2018-06-11T00:54:58.934Z,92.61
2018-06-11T00:55:58.957Z,92.13
2018-06-11T00:56:58.985Z,92.04
2018-06-11T00:57:58.997Z,92.23
2018-06-11T00:58:59.025Z,92.71
2018-06-11T00:59:59.049Z,91.70
2018-06-11T01:00:59.063Z,90.83
2018-06-11T01:01:59.089Z,91.31
2018-06-11T01:02:59.115Z,91.66
2018-06-11T01:03:59.129Z,91.66
2018-06-11T01:04:59.153Z,91.46
2018-06-11T01:05:59.182Z,91.94
2018-06-11T01:06:59.195Z,91.56
2018-06-11T01:07:59.213Z,92.23
2018-06-11T01:08:59.232Z,93.44
2018-06-11T01:09:59.256Z,93.19
2018-06-11T01:10:59.284Z,94.01
2018-06-11T01:11:59.318Z,93.91
2018-06-11T01:12:59.327Z,93.48
2018-06-11T01:13:59.349Z,93.10
2018-06-11T01:14:59.372Z,92.43
2018-06-11T01:15:59.383Z,92.23
2018-06-11T01:16:59.412Z,91.17
2018-06-11T01:17:59.427Z,91.27
2018-06-11T01:18:59.459Z,91.66
2018-06-11T01:19:59.481Z,90.69
2018-06-11T01:20:59.493Z,90.50
2018-06-11T01:21:59.522Z,90.98
2018-06-11T01:22:59.550Z,91.27
2018-06-11T01:23:59.558Z,91.27
2018-06-11T01:24:59.582Z,91.56
2018-06-11T01:25:59.597Z,91.56
2018-06-11T01:26:59.636Z,91.17
2018-06-11T01:27:59.658Z,91.36
2018-06-11T01:28:59.672Z,91.36
2018-06-11T01:29:59.685Z,91.75
2018-06-11T01:30:59.706Z,92.23
2018-06-11T01:31:59.725Z,91.66
2018-06-11T01:32:59.757Z,91.94
2018-06-11T01:33:59.771Z,90.35
2018-06-11T01:34:59.798Z,90.16
2018-06-11T01:35:59.817Z,89.10
2018-06-11T01:36:59.831Z,88.24
2018-06-11T01:37:59.868Z,88.33
2018-06-11T01:38:59.874Z,88.62
2018-06-11T01:39:59.897Z,88.04
2018-06-11T01:40:59.920Z,88.04
2018-06-11T01:41:59.940Z,88.19
2018-06-11T01:42:59.967Z,88.81
2018-06-11T01:43:59.985Z,88.57
2018-06-11T01:45:00.038Z,89.06
2018-06-11T01:46:00.038Z,88.67
2018-06-11T01:47:00.046Z,88.82
2018-06-11T01:48:00.075Z,90.70
2018-06-11T01:49:00.093Z,92.19
2018-06-11T01:50:00.126Z,92.43
2018-06-11T01:51:00.134Z,92.47
2018-06-11T01:52:00.152Z,91.03
2018-06-11T01:53:00.169Z,91.80
2018-06-11T01:54:00.195Z,91.71
2018-06-11T01:55:00.218Z,92.38
2018-06-11T01:56:00.246Z,92.57
2018-06-11T01:57:00.255Z,90.65
2018-06-11T01:58:00.284Z,91.08
2018-06-11T01:59:00.299Z,90.36
2018-06-11T02:00:00.344Z,91.32
2018-06-11T02:01:00.338Z,91.22
2018-06-11T02:02:00.360Z,91.95
2018-06-11T02:03:00.382Z,91.99
2018-06-11T02:04:00.403Z,91.42
2018-06-11T02:05:00.424Z,90.17
2018-06-11T02:06:00.439Z,89.73
2018-06-11T02:07:00.561Z,88.57
2018-06-11T02:08:00.494Z,89.01
2018-06-11T02:09:00.520Z,89.69
2018-06-11T02:10:00.534Z,90.17
2018-06-11T02:11:00.550Z,90.07
2018-06-11T02:12:00.570Z,90.84
2018-06-11T02:13:00.595Z,91.32
2018-06-11T02:14:00.620Z,90.65
2018-06-11T02:15:00.647Z,89.11
2018-06-11T02:16:00.674Z,88.82
2018-06-11T02:17:00.678Z,89.78
2018-06-11T02:18:00.781Z,89.98
2018-06-11T02:19:00.714Z,89.98
2018-06-11T02:20:00.750Z,90.07
2018-06-11T02:21:00.768Z,89.40
2018-06-11T02:22:00.837Z,89.15
2018-06-11T02:23:00.808Z,88.10
2018-06-11T02:24:00.827Z,88.48
2018-06-11T02:25:00.848Z,87.52
2018-06-11T02:26:00.868Z,89.01
2018-06-11T02:27:00.895Z,89.01
2018-06-11T02:28:00.912Z,88.00
2018-06-11T02:29:00.936Z,88.19
2018-06-11T02:30:00.949Z,87.71
2018-06-11T02:31:00.986Z,86.94
2018-06-11T02:32:00.990Z,87.62
2018-06-11T02:33:01.023Z,89.11
2018-06-11T02:34:01.048Z,89.21
2018-06-11T02:35:01.057Z,87.90
2018-06-11T02:36:01.076Z,88.63
2018-06-11T02:37:01.093Z,88.53
2018-06-11T02:38:01.115Z,88.34
2018-06-11T02:39:01.142Z,88.06
2018-06-11T02:40:01.160Z,89.83
2018-06-11T02:41:01.184Z,90.60
2018-06-11T02:42:01.220Z,90.12
2018-06-11T02:43:01.233Z,90.03
2018-06-11T02:44:01.244Z,88.92
2018-06-11T02:45:01.268Z,89.26
2018-06-11T02:46:01.293Z,89.50
2018-06-11T02:47:01.308Z,89.26
2018-06-11T02:48:01.326Z,89.93
2018-06-11T02:49:01.354Z,89.83
2018-06-11T02:50:01.378Z,90.03
2018-06-11T02:51:01.388Z,90.08
2018-06-11T02:52:01.414Z,91.90
2018-06-11T02:53:01.443Z,91.18
2018-06-11T02:54:01.483Z,92.00
2018-06-11T02:55:01.483Z,92.29
2018-06-11T02:56:01.488Z,91.52
2018-06-11T02:57:01.509Z,91.61
2018-06-11T02:58:01.533Z,92.29
2018-06-11T02:59:01.551Z,91.90
2018-06-11T03:00:01.582Z,91.42
2018-06-11T03:01:01.603Z,90.46
2018-06-11T03:02:01.617Z,90.94
2018-06-11T03:03:01.640Z,90.80
2018-06-11T03:04:01.668Z,90.56
2018-06-11T03:05:01.678Z,90.70
2018-06-11T03:06:01.701Z,90.70
2018-06-11T03:07:01.721Z,90.12
2018-06-11T03:08:01.737Z,90.22
2018-06-11T03:09:01.764Z,89.98
2018-06-11T03:10:01.787Z,89.98
2018-06-11T03:11:01.802Z,90.27
2018-06-11T03:12:01.832Z,89.74
2018-06-11T03:13:01.849Z,89.93
2018-06-11T03:14:01.867Z,89.98
2018-06-11T03:15:01.892Z,91.66
2018-06-11T03:16:01.910Z,91.52
2018-06-11T03:17:01.934Z,90.70
2018-06-11T03:18:01.949Z,90.37
2018-06-11T03:19:02.013Z,90.52
2018-06-11T03:20:01.984Z,91.57
2018-06-11T03:21:02.010Z,90.70
2018-06-11T03:22:02.029Z,91.09
2018-06-11T03:23:02.059Z,90.61
2018-06-11T03:24:02.095Z,91.52
2018-06-11T03:25:02.087Z,89.89
2018-06-11T03:26:02.116Z,89.98
2018-06-11T03:27:02.127Z,90.52
2018-06-11T03:28:02.157Z,91.57
2018-06-11T03:29:02.175Z,91.19
2018-06-11T03:30:02.192Z,90.52
2018-06-11T03:31:02.217Z,89.98
2018-06-11T03:32:02.235Z,89.94
2018-06-11T03:33:02.251Z,90.08
2018-06-11T03:34:02.277Z,89.98
2018-06-11T03:35:02.303Z,88.64
2018-06-11T03:36:02.324Z,89.89
2018-06-11T03:37:02.334Z,89.94
2018-06-11T03:38:02.353Z,89.40
2018-06-11T03:39:02.378Z,89.50
2018-06-11T03:40:02.407Z,88.83
2018-06-11T03:41:02.423Z,88.73
2018-06-11T03:42:02.442Z,89.75
2018-06-11T03:43:02.456Z,90.61
2018-06-11T03:44:02.479Z,89.46
2018-06-11T03:45:02.502Z,89.26
2018-06-11T03:46:02.537Z,89.02
2018-06-11T03:47:02.535Z,89.26
2018-06-11T03:48:02.566Z,88.25
2018-06-11T03:49:02.582Z,88.45
2018-06-11T03:50:02.595Z,88.06
2018-06-11T03:51:02.628Z,86.91
2018-06-11T03:52:02.652Z,87.39
2018-06-11T03:53:02.654Z,87.77
2018-06-11T03:54:02.678Z,87.92
2018-06-11T03:55:02.697Z,89.55
2018-06-11T03:56:02.724Z,89.26
2018-06-11T03:57:02.744Z,89.17
2018-06-11T03:58:02.759Z,89.17
2018-06-11T03:59:02.780Z,89.07
2018-06-11T04:00:02.801Z,89.02
2018-06-11T04:01:02.835Z,88.40
2018-06-11T04:02:02.842Z,87.96
2018-06-11T04:03:02.865Z,88.88
2018-06-11T04:04:02.886Z,88.88
2018-06-11T04:05:02.905Z,89.36
2018-06-11T04:06:02.922Z,89.75
2018-06-11T04:07:02.946Z,89.94
2018-06-11T04:08:02.972Z,89.55
2018-06-11T04:09:02.983Z,90.03
2018-06-11T04:10:03.011Z,90.28
2018-06-11T04:11:03.121Z,89.26
2018-06-11T04:12:03.047Z,88.45
2018-06-11T04:13:03.066Z,87.96
2018-06-11T04:14:03.094Z,88.06
2018-06-11T04:15:03.112Z,88.54
2018-06-11T04:16:03.137Z,88.98
2018-06-11T04:17:03.148Z,88.73
2018-06-11T04:18:03.170Z,89.94
2018-06-11T04:19:03.207Z,90.52
2018-06-11T04:20:03.215Z,89.55
2018-06-11T04:21:03.229Z,89.84
2018-06-11T04:22:03.249Z,89.65
2018-06-11T04:23:03.268Z,89.70
2018-06-11T04:24:03.293Z,90.66
2018-06-11T04:25:03.323Z,90.37
2018-06-11T04:26:03.343Z,91.14
2018-06-11T04:27:03.354Z,91.91
2018-06-11T04:28:03.381Z,91.72
2018-06-11T04:29:03.392Z,90.70
2018-06-11T04:30:03.413Z,89.84
2018-06-11T04:31:03.433Z,89.65
2018-06-11T04:32:03.468Z,90.03
2018-06-11T04:33:03.470Z,89.94
2018-06-11T04:34:03.492Z,89.65
2018-06-11T04:35:03.517Z,89.46
2018-06-11T04:36:03.540Z,88.93
2018-06-11T04:37:03.554Z,88.45
2018-06-11T04:38:03.579Z,88.49
2018-06-11T04:39:03.605Z,88.98
2018-06-11T04:40:03.635Z,89.75
2018-06-11T04:41:03.649Z,89.75
2018-06-11T04:42:03.656Z,90.61
2018-06-11T04:43:03.678Z,89.94
2018-06-11T04:44:03.699Z,89.36
2018-06-11T04:45:03.727Z,88.25
2018-06-11T04:46:03.738Z,89.02
2018-06-11T04:47:03.778Z,88.45
2018-06-11T04:48:03.778Z,88.16
2018-06-11T04:49:03.802Z,86.91
2018-06-11T04:50:03.828Z,86.47
2018-06-11T04:51:03.855Z,86.09
2018-06-11T04:52:03.860Z,86.09
2018-06-11T04:53:03.881Z,85.51
2018-06-11T04:54:03.903Z,85.32
2018-06-11T04:55:03.937Z,86.09
2018-06-11T04:56:03.944Z,85.71
2018-06-11T04:57:03.987Z,86.62
2018-06-11T04:58:03.983Z,86.62
2018-06-11T04:59:04.008Z,86.57
2018-06-11T05:00:04.042Z,86.38
2018-06-11T05:01:04.056Z,87.01
2018-06-11T05:02:04.072Z,87.49
2018-06-11T05:03:04.102Z,87.77
2018-06-11T05:04:04.112Z,88.06
2018-06-11T05:05:04.128Z,87.87
2018-06-11T05:06:04.150Z,87.49
2018-06-11T05:07:04.176Z,86.91
2018-06-11T05:08:04.252Z,87.77
2018-06-11T05:09:04.213Z,88.16
2018-06-11T05:10:04.267Z,87.96
2018-06-11T05:11:04.293Z,87.96
2018-06-11T05:12:04.277Z,88.45
2018-06-11T05:13:04.301Z,88.93
2018-06-11T05:14:04.330Z,89.02
2018-06-11T05:15:04.351Z,88.54
2018-06-11T05:16:04.372Z,88.25
2018-06-11T05:17:04.377Z,88.20
2018-06-11T05:18:04.395Z,87.15
2018-06-11T05:19:04.441Z,86.95
2018-06-11T05:20:04.482Z,87.10
2018-06-11T05:21:04.465Z,88.88
2018-06-11T05:22:04.476Z,89.94
2018-06-11T05:23:04.504Z,90.66
2018-06-11T05:24:04.532Z,91.47
2018-06-11T05:25:04.553Z,91.62
2018-06-11T05:26:04.567Z,91.66
2018-06-11T05:27:04.588Z,90.13
2018-06-11T05:28:04.609Z,89.79
2018-06-11T05:29:04.632Z,89.69
2018-06-11T05:30:04.651Z,90.13
2018-06-11T05:31:04.672Z,90.03
2018-06-11T05:32:04.686Z,90.42
2018-06-11T05:33:04.719Z,89.84
2018-06-11T05:34:04.738Z,89.65
2018-06-11T05:35:04.751Z,89.79
2018-06-11T05:36:04.783Z,88.45
2018-06-11T05:37:04.806Z,90.56
2018-06-11T05:38:04.827Z,90.85
2018-06-11T05:39:04.847Z,90.32
2018-06-11T05:40:04.850Z,89.69
2018-06-11T05:41:04.874Z,90.03
2018-06-11T05:42:04.906Z,89.99
2018-06-11T05:43:04.918Z,92.39
2018-06-11T05:44:04.948Z,91.38
2018-06-11T05:45:04.960Z,90.03
2018-06-11T05:46:04.980Z,89.70
2018-06-11T05:47:05.001Z,89.75
2018-06-11T05:48:05.016Z,89.46
2018-06-11T05:49:05.042Z,89.89
2018-06-11T05:50:05.069Z,89.84
2018-06-11T05:51:05.079Z,88.88
2018-06-11T05:52:05.108Z,88.25
2018-06-11T05:53:05.142Z,87.68
2018-06-11T05:54:05.157Z,87.44
2018-06-11T05:55:05.160Z,89.89
2018-06-11T05:56:05.187Z,90.66
2018-06-11T05:57:05.211Z,90.13
2018-06-11T05:58:05.226Z,88.06
2018-06-11T05:59:05.246Z,87.58
2018-06-11T06:00:05.266Z,87.68
2018-06-11T06:01:05.289Z,87.01
2018-06-11T06:02:05.316Z,86.91
2018-06-11T06:03:05.333Z,86.43
2018-06-11T06:04:05.350Z,85.75
2018-06-11T06:05:05.368Z,86.14
2018-06-11T06:06:05.388Z,86.77
2018-06-11T06:07:05.407Z,87.78
2018-06-11T06:08:05.450Z,89.03
2018-06-11T06:09:05.462Z,90.47
2018-06-11T06:10:05.471Z,91.38
2018-06-11T06:11:05.489Z,90.75
2018-06-11T06:12:05.509Z,89.89
2018-06-11T06:13:05.538Z,88.93
2018-06-11T06:14:05.585Z,88.21
2018-06-11T06:15:05.576Z,88.11
2018-06-11T06:16:05.589Z,87.73
2018-06-11T06:17:05.617Z,87.01
2018-06-11T06:18:05.640Z,85.85
2018-06-11T06:19:05.655Z,85.18
2018-06-11T06:20:05.687Z,86.48
2018-06-11T06:21:05.694Z,87.54
2018-06-11T06:22:05.710Z,86.96
2018-06-11T06:23:05.733Z,86.77
2018-06-11T06:24:05.755Z,86.68
2018-06-11T06:25:05.785Z,86.77
2018-06-11T06:26:05.831Z,85.85
2018-06-11T06:27:05.817Z,85.85
2018-06-11T06:28:05.839Z,85.66
2018-06-11T06:29:05.868Z,84.94
2018-06-11T06:30:05.881Z,84.17
2018-06-11T06:31:05.904Z,83.97
2018-06-11T06:32:05.927Z,83.30
2018-06-11T06:33:05.938Z,83.54
2018-06-11T06:34:06.012Z,86.10
2018-06-11T06:35:05.985Z,86.58
2018-06-11T06:36:06.020Z,86.48
2018-06-11T06:37:06.026Z,85.08
2018-06-11T06:38:06.045Z,84.70
2018-06-11T06:39:06.075Z,83.97
2018-06-11T06:40:06.095Z,82.92
2018-06-11T06:41:06.109Z,82.53
2018-06-11T06:42:06.144Z,82.29
2018-06-11T06:43:06.157Z,81.13
2018-06-11T06:44:06.168Z,81.76
2018-06-11T06:45:06.190Z,81.61
2018-06-11T06:46:06.247Z,81.23
2018-06-11T06:47:06.231Z,80.65
2018-06-11T06:48:06.264Z,81.52
2018-06-11T06:49:06.278Z,81.67
2018-06-11T06:50:06.299Z,82.09
2018-06-11T06:51:06.317Z,81.38
2018-06-11T06:52:06.346Z,81.52
2018-06-11T06:53:06.376Z,80.65
2018-06-11T06:54:06.381Z,81.28
2018-06-11T06:55:06.409Z,80.90
2018-06-11T06:56:06.429Z,81.86
2018-06-11T06:57:06.473Z,81.48
2018-06-11T06:58:06.483Z,81.48
2018-06-11T06:59:06.504Z,82.05
2018-06-11T07:00:06.509Z,80.80
2018-06-11T07:01:06.552Z,80.90
2018-06-11T07:02:06.551Z,80.61
2018-06-11T07:03:06.587Z,81.19
2018-06-11T07:04:06.591Z,81.57
2018-06-11T07:05:06.611Z,81.09
2018-06-11T07:06:06.632Z,80.27
2018-06-11T07:07:06.649Z,80.04
2018-06-11T07:08:06.694Z,80.86
2018-06-11T07:09:06.697Z,83.41
2018-06-11T07:10:06.711Z,82.20
2018-06-11T07:11:06.747Z,81.67
2018-06-11T07:12:06.764Z,80.71
2018-06-11T07:13:06.795Z,81.38
2018-06-11T07:14:06.815Z,80.90
2018-06-11T07:15:06.829Z,80.71
2018-06-11T07:16:06.848Z,81.72
2018-06-11T07:17:06.861Z,81.82
2018-06-11T07:18:06.888Z,82.10
2018-06-11T07:19:06.929Z,82.10
2018-06-11T07:20:06.935Z,82.05
2018-06-11T07:21:06.969Z,81.86
2018-06-11T07:22:06.961Z,81.19
2018-06-11T07:23:06.994Z,81.19
2018-06-11T07:24:07.018Z,81.15
2018-06-11T07:25:07.037Z,80.80
2018-06-11T07:26:07.051Z,80.99
2018-06-11T07:27:07.171Z,80.90
2018-06-11T07:28:07.100Z,81.09
2018-06-11T07:29:07.123Z,80.55
2018-06-11T07:30:07.138Z,80.27
2018-06-11T07:31:07.172Z,79.69
2018-06-11T07:32:07.176Z,78.73
2018-06-11T07:33:07.199Z,79.79
2018-06-11T07:34:07.226Z,79.25
2018-06-11T07:35:07.242Z,79.21
2018-06-11T07:36:07.255Z,79.02
2018-06-11T07:37:07.284Z,79.21
2018-06-11T07:38:07.305Z,78.19
2018-06-11T07:39:07.330Z,78.06
2018-06-11T07:40:07.353Z,79.88
2018-06-11T07:41:07.366Z,78.53
2018-06-11T07:42:07.385Z,79.11
2018-06-11T07:43:07.407Z,78.77
2018-06-11T07:44:07.446Z,78.25
2018-06-11T07:45:07.446Z,78.53
2018-06-11T07:46:07.471Z,78.73
2018-06-11T07:47:07.503Z,78.38
2018-06-11T07:48:07.565Z,77.71
2018-06-11T07:49:07.542Z,77.29
2018-06-11T07:50:07.561Z,78.98
2018-06-11T07:51:07.576Z,80.13
2018-06-11T07:52:07.618Z,79.30
2018-06-11T07:53:07.616Z,78.06
2018-06-11T07:54:07.647Z,77.29
2018-06-11T07:55:07.670Z,76.75
2018-06-11T07:56:07.685Z,76.75
2018-06-11T07:57:07.704Z,76.75
2018-06-11T07:58:07.734Z,75.98
2018-06-11T07:59:07.748Z,76.61
2018-06-11T08:00:07.774Z,77.67
2018-06-11T08:01:07.789Z,76.90
2018-06-11T08:02:07.804Z,76.71
2018-06-11T08:03:07.864Z,77.53
2018-06-11T08:04:07.849Z,78.15
2018-06-11T08:05:07.874Z,77.04
2018-06-11T08:06:07.900Z,76.65
2018-06-11T08:07:07.917Z,77.48
2018-06-11T08:08:07.937Z,77.13
2018-06-11T08:09:07.979Z,76.65
2018-06-11T08:10:07.977Z,77.04
2018-06-11T08:11:07.997Z,76.21
2018-06-11T08:12:08.022Z,75.73
2018-06-11T08:13:08.038Z,75.73
2018-06-11T08:14:08.081Z,75.48
2018-06-11T08:15:08.107Z,74.22
2018-06-11T08:16:08.108Z,74.41
2018-06-11T08:17:08.132Z,74.03
2018-06-11T08:18:08.151Z,73.26
2018-06-11T08:19:08.179Z,73.16
2018-06-11T08:20:08.203Z,73.65
2018-06-11T08:21:08.211Z,73.10
2018-06-11T08:22:08.243Z,72.33
2018-06-11T08:23:08.272Z,72.43
2018-06-11T08:24:08.280Z,72.30
2018-06-11T08:25:08.303Z,73.26
2018-06-11T08:26:08.343Z,73.36
2018-06-11T08:27:08.344Z,73.07
2018-06-11T08:28:08.375Z,72.63
2018-06-11T08:29:08.385Z,72.53
2018-06-11T08:30:08.414Z,71.70
2018-06-11T08:31:08.440Z,70.44
2018-06-11T08:32:08.452Z,69.57
2018-06-11T08:33:08.481Z,70.73
2018-06-11T08:34:08.500Z,70.64
2018-06-11T08:35:08.535Z,70.64
2018-06-11T08:36:08.559Z,69.96
2018-06-11T08:37:08.566Z,70.73
2018-06-11T08:38:08.591Z,69.42
2018-06-11T08:39:08.608Z,68.93
2018-06-11T08:40:08.629Z,68.35
2018-06-11T08:41:08.678Z,68.16
2018-06-11T08:42:08.694Z,68.35
2018-06-11T08:43:08.727Z,68.26
2018-06-11T08:44:08.728Z,67.88
2018-06-11T08:45:08.746Z,67.68
2018-06-11T08:46:08.767Z,67.58
2018-06-11T08:47:08.800Z,68.07
2018-06-11T08:48:08.817Z,68.35
2018-06-11T08:49:08.829Z,69.19
2018-06-11T08:50:08.886Z,71.49
2018-06-11T08:51:08.880Z,73.32
2018-06-11T08:52:08.907Z,72.63
2018-06-11T08:53:08.947Z,71.60
2018-06-11T08:54:08.947Z,70.92
2018-06-11T08:55:08.970Z,69.03
2018-06-11T08:56:08.994Z,68.16
2018-06-11T08:57:09.032Z,67.49
2018-06-11T08:58:09.034Z,67.04
2018-06-11T08:59:09.071Z,65.88
2018-06-11T09:00:09.159Z,65.72
2018-06-11T09:01:09.106Z,63.98
2018-06-11T09:02:09.137Z,64.28
2018-06-11T09:03:09.154Z,65.47
2018-06-11T09:04:09.183Z,66.72
2018-06-11T09:05:09.197Z,66.82
2018-06-11T09:06:09.217Z,66.62
2018-06-11T09:07:09.292Z,65.43
2018-06-11T09:08:09.278Z,64.82
2018-06-11T09:09:09.304Z,65.01
2018-06-11T09:10:09.313Z,65.05
2018-06-11T09:11:09.336Z,65.50
2018-06-11T09:12:09.351Z,65.34
2018-06-11T09:13:09.378Z,63.89
2018-06-11T09:14:09.403Z,64.11
2018-06-11T09:15:09.432Z,63.18
2018-06-11T09:16:09.447Z,61.30
2018-06-11T09:17:09.516Z,60.89
2018-06-11T09:18:09.620Z,62.70
2018-06-11T09:19:09.516Z,63.15
2018-06-11T09:20:09.542Z,63.31
2018-06-11T09:21:09.569Z,63.50
2018-06-11T09:22:09.601Z,63.05
2018-06-11T09:23:09.613Z,63.57
2018-06-11T09:24:09.648Z,63.37
2018-06-11T09:25:09.697Z,64.34
2018-06-11T09:26:09.693Z,63.85
2018-06-11T09:27:09.711Z,63.47
2018-06-11T09:28:09.738Z,63.12
2018-06-11T09:29:09.754Z,62.28
2018-06-11T09:30:09.781Z,61.73
2018-06-11T09:31:09.798Z,60.11
2018-06-11T09:32:09.821Z,59.51
2018-06-11T09:33:09.849Z,59.99
2018-06-11T09:34:09.890Z,60.76
2018-06-11T09:35:09.898Z,60.09
2018-06-11T09:36:09.916Z,59.66
2018-06-11T09:37:09.962Z,59.38
2018-06-11T09:38:09.967Z,58.04
2018-06-11T09:39:09.993Z,57.69
2018-06-11T09:40:10.021Z,57.04
2018-06-11T09:41:10.037Z,55.94
2018-06-11T09:42:10.067Z,56.95
2018-06-11T09:43:10.081Z,58.25
2018-06-11T09:44:10.154Z,59.60
2018-06-11T09:45:10.135Z,60.09
2018-06-11T09:46:10.160Z,60.99
2018-06-11T09:47:10.185Z,60.06
2018-06-11T09:48:10.206Z,58.92
2018-06-11T09:49:10.273Z,57.76
2018-06-11T09:50:10.255Z,57.20
2018-06-11T09:51:10.295Z,56.98
2018-06-11T09:52:10.306Z,57.08
2018-06-11T09:53:10.320Z,56.52
2018-06-11T09:54:10.360Z,55.24
2018-06-11T09:55:10.375Z,55.46
2018-06-11T09:56:10.397Z,55.78
2018-06-11T09:57:10.414Z,54.23
2018-06-11T09:58:10.444Z,54.23
2018-06-11T09:59:10.478Z,54.43
2018-06-11T10:00:10.499Z,54.55
2018-06-11T10:01:10.524Z,54.16
2018-06-11T10:02:10.550Z,54.91
2018-06-11T10:03:10.559Z,53.67
2018-06-11T10:04:10.596Z,53.89
2018-06-11T10:05:10.607Z,52.73
2018-06-11T10:06:10.644Z,52.37
2018-06-11T10:07:10.660Z,52.37
2018-06-11T10:08:10.711Z,52.25
2018-06-11T10:09:10.762Z,52.90
2018-06-11T10:10:10.744Z,54.33
2018-06-11T10:11:10.752Z,54.64
2018-06-11T10:12:10.781Z,52.93
2018-06-11T10:13:10.808Z,53.61
2018-06-11T10:14:10.837Z,54.81
2018-06-11T10:15:10.863Z,56.43
2018-06-11T10:16:10.884Z,58.53
2018-06-11T10:17:10.915Z,59.25
2018-06-11T10:18:10.936Z,61.25
2018-06-11T10:19:10.981Z,62.21
2018-06-11T10:20:10.981Z,61.05
2018-06-11T10:21:10.996Z,61.54
2018-06-11T10:22:11.034Z,60.67
2018-06-11T10:23:11.048Z,61.63
2018-06-11T10:24:11.080Z,62.50
2018-06-11T10:25:11.091Z,63.24
2018-06-11T10:26:11.113Z,63.24
2018-06-11T10:27:11.157Z,61.31
2018-06-11T10:28:11.158Z,62.76
2018-06-11T10:29:11.200Z,63.24
2018-06-11T10:30:11.211Z,62.95
2018-06-11T10:31:11.229Z,64.47
2018-06-11T10:32:11.259Z,63.09
2018-06-11T10:33:11.290Z,63.40
2018-06-11T10:34:11.301Z,62.95
2018-06-11T10:35:11.350Z,62.40
2018-06-11T10:36:11.348Z,62.76
2018-06-11T10:37:11.409Z,62.60
2018-06-11T10:38:11.396Z,62.89
2018-06-11T10:39:11.476Z,62.31
2018-06-11T10:40:11.443Z,61.80
2018-06-11T10:41:11.470Z,62.86
2018-06-11T10:42:11.497Z,62.82
2018-06-11T10:43:11.507Z,63.05
2018-06-11T10:44:11.532Z,62.21
2018-06-11T10:45:11.561Z,61.34
2018-06-11T10:46:11.575Z,61.34
2018-06-11T10:47:11.605Z,60.11
2018-06-11T10:48:11.628Z,59.18
2018-06-11T10:49:11.648Z,58.80
2018-06-11T10:50:11.675Z,60.54
2018-06-11T10:51:11.704Z,60.89
2018-06-11T10:52:11.712Z,61.41
2018-06-11T10:53:11.740Z,61.41
2018-06-11T10:54:11.773Z,62.28
2018-06-11T10:55:11.811Z,62.08
2018-06-11T10:56:11.813Z,62.79
2018-06-11T10:57:11.837Z,62.79
2018-06-11T10:58:11.867Z,62.57
2018-06-11T10:59:11.881Z,62.57
2018-06-11T11:00:11.904Z,62.28
2018-06-11T11:01:11.930Z,61.44
2018-06-11T11:02:11.956Z,61.05
2018-06-11T11:03:11.964Z,60.24
2018-06-11T11:04:11.995Z,58.34
2018-06-11T11:05:12.036Z,58.53
2018-06-11T11:06:12.048Z,58.98
2018-06-11T11:07:12.065Z,59.21
2018-06-11T11:08:12.086Z,60.41
2018-06-11T11:09:12.110Z,60.89
2018-06-11T11:10:12.137Z,61.05
2018-06-11T11:11:12.154Z,62.73
2018-06-11T11:12:12.195Z,61.18
2018-06-11T11:13:12.253Z,61.18
2018-06-11T11:14:12.227Z,59.02
2018-06-11T11:15:12.242Z,59.48
2018-06-11T11:16:12.300Z,59.58
2018-06-11T11:17:12.286Z,60.67
2018-06-11T11:18:12.313Z,58.73
2018-06-11T11:19:12.347Z,57.77
2018-06-11T11:20:12.361Z,57.99
2018-06-11T11:21:12.386Z,57.99
2018-06-11T11:22:12.409Z,59.12
2018-06-11T11:23:12.436Z,59.51
2018-06-11T11:24:12.455Z,61.22
2018-06-11T11:25:12.486Z,59.60
2018-06-11T11:26:12.496Z,59.41
2018-06-11T11:27:12.530Z,57.82
2018-06-11T11:28:12.550Z,57.28
2018-06-11T11:29:12.565Z,59.95
2018-06-11T11:30:12.591Z,57.89
2018-06-11T11:31:12.632Z,58.95
2018-06-11T11:32:12.638Z,59.56
2018-06-11T11:33:12.660Z,57.92
2018-06-11T11:34:12.681Z,57.99
2018-06-11T11:35:12.724Z,58.89
2018-06-11T11:36:12.731Z,57.89
2018-06-11T11:37:12.756Z,57.89
2018-06-11T11:38:12.778Z,59.41
2018-06-11T11:39:12.803Z,59.41
2018-06-11T11:40:12.825Z,59.51
2018-06-11T11:41:12.850Z,59.60
2018-06-11T11:42:12.876Z,59.44
2018-06-11T11:43:12.896Z,59.83
2018-06-11T11:44:12.916Z,60.53
2018-06-11T11:45:12.942Z,59.31
2018-06-11T11:46:12.963Z,58.80
2018-06-11T11:47:12.998Z,59.38
2018-06-11T11:48:13.016Z,59.47
2018-06-11T11:49:13.047Z,60.24
2018-06-11T11:50:13.055Z,58.28
2018-06-11T11:51:13.155Z,58.86
2018-06-11T11:52:13.102Z,58.83
2018-06-11T11:53:13.125Z,57.96
2018-06-11T11:54:13.183Z,57.15
2018-06-11T11:55:13.181Z,57.21
2018-06-11T11:56:13.197Z,56.11
2018-06-11T11:57:13.217Z,56.37
2018-06-11T11:58:13.241Z,57.76
2018-06-11T11:59:13.287Z,59.01
2018-06-11T12:00:13.299Z,58.89
2018-06-11T12:01:13.315Z,58.02
2018-06-11T12:02:13.331Z,60.50
2018-06-11T12:03:13.354Z,61.18
2018-06-11T12:04:13.376Z,60.14
2018-06-11T12:05:13.398Z,57.92
2018-06-11T12:06:13.433Z,59.21
2018-06-11T12:07:13.443Z,56.70
2018-06-11T12:08:13.487Z,57.37
2018-06-11T12:09:13.487Z,57.30
2018-06-11T12:10:13.512Z,56.72
2018-06-11T12:11:13.541Z,56.70
2018-06-11T12:12:13.571Z,55.36
2018-06-11T12:13:13.591Z,55.58
2018-06-11T12:14:13.609Z,53.94
2018-06-11T12:15:13.638Z,51.13
2018-06-11T12:16:13.677Z,52.29
2018-06-11T12:17:13.681Z,52.92
2018-06-11T12:18:13.712Z,54.27
2018-06-11T12:19:13.728Z,52.95
2018-06-11T12:20:13.754Z,54.01
2018-06-11T12:21:13.775Z,53.94
2018-06-11T12:22:13.802Z,51.81
2018-06-11T12:23:13.829Z,52.27
2018-06-11T12:24:13.838Z,52.89
2018-06-11T12:25:13.871Z,52.61
2018-06-11T12:26:13.895Z,54.25
2018-06-11T12:27:13.916Z,55.31
2018-06-11T12:28:13.933Z,53.61
2018-06-11T12:29:13.986Z,55.55
2018-06-11T12:30:13.979Z,56.41
2018-06-11T12:31:14.061Z,56.35
2018-06-11T12:32:14.022Z,56.63
2018-06-11T12:33:14.065Z,55.21
2018-06-11T12:34:14.072Z,55.87
2018-06-11T12:35:14.104Z,55.89
2018-06-11T12:36:14.120Z,56.25
2018-06-11T12:37:14.137Z,55.11
2018-06-11T12:38:14.162Z,55.31
2018-06-11T12:39:14.185Z,55.43
2018-06-11T12:40:14.215Z,54.59
2018-06-11T12:41:14.233Z,54.33
2018-06-11T12:42:14.263Z,54.03
2018-06-11T12:43:14.286Z,55.40
2018-06-11T12:44:14.324Z,52.80
2018-06-11T12:45:14.325Z,50.96
2018-06-11T12:46:14.360Z,52.68
2018-06-11T12:47:14.380Z,52.17
2018-06-11T12:48:14.403Z,51.98
2018-06-11T12:49:14.421Z,51.62
2018-06-11T12:50:14.445Z,51.62
2018-06-11T12:51:14.464Z,50.48
2018-06-11T12:52:14.488Z,50.45
2018-06-11T12:53:14.517Z,52.22